createdAt,value
2022-12-13T07:57:15.500Z,992.04
2022-12-13T08:52:14.796Z,991.74
2022-12-13T08:53:29.447Z,991.63
2022-12-13T08:54:14.770Z,991.65
2022-12-13T08:55:18.197Z,991.58
2022-12-13T08:56:14.744Z,991.57
2022-12-13T08:57:14.735Z,991.56
2022-12-13T08:58:14.724Z,991.60
2022-12-13T08:59:16.106Z,991.55
2022-12-13T09:00:14.697Z,991.54
2022-12-13T09:01:14.704Z,991.47
2022-12-13T09:02:14.758Z,991.47
2022-12-13T09:03:14.654Z,991.55
2022-12-13T09:04:14.665Z,991.44
2022-12-13T09:05:33.457Z,991.50
2022-12-13T09:06:16.616Z,991.32
2022-12-13T09:07:14.603Z,991.31
2022-12-13T09:08:23.928Z,991.28
2022-12-13T09:09:14.576Z,991.30
2022-12-13T09:10:26.962Z,991.35
2022-12-13T09:11:22.668Z,991.35
2022-12-13T09:12:29.843Z,991.38
2022-12-13T09:13:31.207Z,991.28
2022-12-13T09:14:16.513Z,991.29
2022-12-13T09:15:22.939Z,991.29
2022-12-13T09:16:23.254Z,991.33
2022-12-13T09:17:14.816Z,991.38
2022-12-13T09:18:23.838Z,991.38
2022-12-13T09:19:26.364Z,991.30
2022-12-13T09:20:29.717Z,991.32
2022-12-13T09:21:22.207Z,991.31
2022-12-13T09:22:14.687Z,991.40
2022-12-13T09:23:23.924Z,991.41
2022-12-13T09:24:23.595Z,991.48
2022-12-13T09:25:24.316Z,991.49
2022-12-13T09:26:15.087Z,991.47
2022-12-13T09:27:27.777Z,991.45
2022-12-13T09:28:16.330Z,991.47
2022-12-13T09:29:14.321Z,991.46
2022-12-13T09:30:14.305Z,991.49
2022-12-13T09:31:14.356Z,991.55
2022-12-13T09:32:14.308Z,991.43
2022-12-13T09:33:30.172Z,991.39
2022-12-13T09:34:14.325Z,991.48
2022-12-13T09:35:14.240Z,991.44
2022-12-13T09:36:14.250Z,991.43
2022-12-13T09:37:14.214Z,991.36
2022-12-13T09:38:14.205Z,991.43
2022-12-13T09:39:14.185Z,991.41
2022-12-13T09:40:16.103Z,991.33
2022-12-13T09:41:19.813Z,991.48
2022-12-13T09:42:14.147Z,991.40
2022-12-13T09:43:21.631Z,991.47
2022-12-13T09:44:32.401Z,991.34
2022-12-13T09:45:22.547Z,991.29
2022-12-13T09:46:22.713Z,991.42
2022-12-13T09:47:14.219Z,991.42
2022-12-13T09:48:14.068Z,991.25
2022-12-13T09:49:16.127Z,991.38
2022-12-13T09:50:16.136Z,991.39
2022-12-13T09:51:28.603Z,991.37
2022-12-13T09:52:21.721Z,991.39
2022-12-13T09:53:21.436Z,991.33
2022-12-13T09:54:16.002Z,991.34
2022-12-13T09:55:13.975Z,991.32
2022-12-13T09:56:14.016Z,991.34
2022-12-13T09:57:13.951Z,991.31
2022-12-13T09:58:15.938Z,991.32
2022-12-13T09:59:13.932Z,991.36
2022-12-13T10:00:13.910Z,991.35
2022-12-13T10:01:14.018Z,991.22
2022-12-13T10:02:15.987Z,991.30
2022-12-13T10:03:13.871Z,991.22
2022-12-13T10:04:13.881Z,991.26
2022-12-13T10:05:22.679Z,991.31
2022-12-13T10:06:13.836Z,991.26
2022-12-13T10:07:13.820Z,991.17
2022-12-13T10:08:13.937Z,991.29
2022-12-13T10:09:13.794Z,991.19
2022-12-13T10:10:13.786Z,991.18
2022-12-13T10:11:13.769Z,991.21
2022-12-13T10:12:13.760Z,991.17
2022-12-13T10:13:13.747Z,991.17
2022-12-13T10:14:13.734Z,991.22
2022-12-13T10:15:13.720Z,991.07
2022-12-13T10:16:15.745Z,991.10
2022-12-13T10:17:15.718Z,991.08
2022-12-13T10:18:13.684Z,991.03
2022-12-13T10:19:29.452Z,991.01
2022-12-13T10:20:13.662Z,990.98
2022-12-13T10:21:13.642Z,990.90
2022-12-13T10:22:13.630Z,990.89
2022-12-13T10:24:26.409Z,990.75
2022-12-13T10:25:15.593Z,990.79
2022-12-13T10:26:14.781Z,990.88
2022-12-13T10:27:15.565Z,990.79
2022-12-13T10:28:13.552Z,990.86
2022-12-13T10:29:13.540Z,990.84
2022-12-13T10:30:13.527Z,990.83
2022-12-13T10:31:13.548Z,990.79
2022-12-13T10:32:13.503Z,990.80
2022-12-13T10:33:13.486Z,990.76
2022-12-13T10:34:13.475Z,990.81
2022-12-13T10:35:13.497Z,990.72
2022-12-13T10:36:13.450Z,990.66
2022-12-13T10:37:13.434Z,990.66
2022-12-13T10:38:13.427Z,990.69
2022-12-13T10:39:13.410Z,990.61
2022-12-13T10:40:13.421Z,990.56
2022-12-13T10:41:15.386Z,990.52
2022-12-13T10:42:13.376Z,990.52
2022-12-13T10:43:15.374Z,990.46
2022-12-13T10:44:13.349Z,990.38
2022-12-13T10:45:13.337Z,990.42
2022-12-13T10:46:13.360Z,990.42
2022-12-13T10:47:17.235Z,990.42
2022-12-13T10:48:13.298Z,990.45
2022-12-13T10:49:13.286Z,990.41
2022-12-13T10:50:13.273Z,990.47
2022-12-13T10:51:13.340Z,990.53
2022-12-13T10:52:13.248Z,990.47
2022-12-13T10:53:13.234Z,990.50
2022-12-13T10:54:13.222Z,990.52
2022-12-13T10:55:23.570Z,990.47
2022-12-13T10:56:13.221Z,990.45
2022-12-13T10:57:15.187Z,990.37
2022-12-13T10:58:13.171Z,990.38
2022-12-13T10:59:17.186Z,990.41
2022-12-13T11:00:15.338Z,990.34
2022-12-13T11:01:13.197Z,990.38
2022-12-13T11:02:13.174Z,990.37
2022-12-13T11:03:13.108Z,990.37
2022-12-13T11:04:13.096Z,990.28
2022-12-13T11:05:13.082Z,990.31
2022-12-13T11:06:13.071Z,990.28
2022-12-13T11:07:13.058Z,990.23
2022-12-13T11:08:13.054Z,990.22
2022-12-13T11:09:22.637Z,990.23
2022-12-13T11:10:15.033Z,990.09
2022-12-13T11:11:13.013Z,990.03
2022-12-13T11:12:13.020Z,990.07
2022-12-13T11:13:12.981Z,990.18
2022-12-13T11:14:12.970Z,990.19
2022-12-13T11:15:12.954Z,990.22
2022-12-13T11:16:12.979Z,990.19
2022-12-13T11:17:12.930Z,990.20
2022-12-13T11:18:12.919Z,990.24
2022-12-13T11:19:12.964Z,990.16
2022-12-13T11:20:12.894Z,990.14
2022-12-13T11:21:12.881Z,990.10
2022-12-13T11:22:12.869Z,990.05
2022-12-13T11:23:12.854Z,990.00
2022-12-13T11:24:12.843Z,989.93
2022-12-13T11:25:12.829Z,989.99
2022-12-13T11:26:12.819Z,990.01
2022-12-13T11:27:12.804Z,989.92
2022-12-13T11:28:25.941Z,989.94
2022-12-13T11:29:14.779Z,989.93
2022-12-13T11:30:12.770Z,989.88
2022-12-13T11:31:12.754Z,989.88
2022-12-13T11:32:12.823Z,989.94
2022-12-13T11:33:12.731Z,989.88
2022-12-13T11:34:12.719Z,989.88
2022-12-13T11:35:12.706Z,989.90
2022-12-13T11:36:12.694Z,989.80
2022-12-13T11:37:12.681Z,989.86
2022-12-13T11:38:12.667Z,989.82
2022-12-13T11:39:12.655Z,989.81
2022-12-13T11:40:12.643Z,989.78
2022-12-13T11:41:12.630Z,989.80
2022-12-13T11:42:12.619Z,989.82
2022-12-13T11:43:12.603Z,989.77
2022-12-13T11:44:12.615Z,989.82
2022-12-13T11:45:13.262Z,989.79
2022-12-13T11:46:12.636Z,989.78
2022-12-13T11:47:12.558Z,989.69
2022-12-13T11:48:12.543Z,989.74
2022-12-13T11:49:12.528Z,989.62
2022-12-13T11:50:16.391Z,989.56
2022-12-13T11:51:14.504Z,989.53
2022-12-13T11:52:12.492Z,989.41
2022-12-13T11:53:12.477Z,989.46
2022-12-13T11:54:12.472Z,989.48
2022-12-13T11:55:12.454Z,989.52
2022-12-13T11:56:12.441Z,989.57
2022-12-13T11:57:12.431Z,989.50
2022-12-13T11:58:12.924Z,989.35
2022-12-13T11:59:20.744Z,989.35
2022-12-13T12:00:13.343Z,989.36
2022-12-13T12:01:12.377Z,989.31
2022-12-13T12:02:16.925Z,989.37
2022-12-13T12:03:12.446Z,989.26
2022-12-13T12:04:12.339Z,989.15
2022-12-13T12:05:12.327Z,989.19
2022-12-13T12:06:12.315Z,989.25
2022-12-13T12:07:31.101Z,989.23
2022-12-13T12:09:12.276Z,989.31
2022-12-13T12:10:12.441Z,989.23
2022-12-13T12:11:12.253Z,989.19
2022-12-13T12:12:12.238Z,989.18
2022-12-13T12:13:12.225Z,989.11
2022-12-13T12:14:12.219Z,989.14
2022-12-13T12:15:15.678Z,989.18
2022-12-13T12:16:12.260Z,989.20
2022-12-13T12:17:12.173Z,989.26
2022-12-13T12:18:12.160Z,989.27
2022-12-13T12:19:12.145Z,989.26
2022-12-13T12:20:12.283Z,989.30
2022-12-13T12:21:12.119Z,989.19
2022-12-13T12:22:14.299Z,989.28
2022-12-13T12:23:12.097Z,989.24
2022-12-13T12:24:12.083Z,989.16
2022-12-13T12:25:12.069Z,989.13
2022-12-13T12:26:12.058Z,989.18
2022-12-13T12:27:12.041Z,989.14
2022-12-13T12:28:12.032Z,989.15
2022-12-13T12:29:12.466Z,989.16
2022-12-13T12:30:12.005Z,989.18
2022-12-13T12:31:12.047Z,989.11
2022-12-13T12:32:12.006Z,989.06
2022-12-13T12:33:11.965Z,989.08
2022-12-13T12:34:11.953Z,989.10
2022-12-13T12:35:11.939Z,989.05
2022-12-13T12:36:11.929Z,989.04
2022-12-13T12:37:11.913Z,989.01
2022-12-13T12:38:11.902Z,988.97
2022-12-13T12:39:11.887Z,988.94
2022-12-13T12:40:11.876Z,988.94
2022-12-13T12:41:16.554Z,989.00
2022-12-13T12:42:11.852Z,989.04
2022-12-13T12:43:15.777Z,988.98
2022-12-13T12:44:11.824Z,989.05
2022-12-13T12:45:17.524Z,988.97
2022-12-13T12:46:13.832Z,988.96
2022-12-13T12:47:38.224Z,988.93
2022-12-13T12:49:13.877Z,988.91
2022-12-13T12:50:11.745Z,988.89
2022-12-13T12:51:11.734Z,988.87
2022-12-13T12:52:11.720Z,988.87
2022-12-13T12:53:11.710Z,988.87
2022-12-13T12:54:11.702Z,988.87
2022-12-13T12:55:11.684Z,988.77
2022-12-13T12:56:11.670Z,988.91
2022-12-13T12:57:11.659Z,988.95
2022-12-13T12:58:11.643Z,988.95
2022-12-13T12:59:11.632Z,989.00
2022-12-13T13:00:11.619Z,989.00
2022-12-13T13:01:11.620Z,988.94
2022-12-13T13:02:11.613Z,988.89
2022-12-13T13:03:26.751Z,988.97
2022-12-13T13:04:11.592Z,988.95
2022-12-13T13:05:11.557Z,988.95
2022-12-13T13:06:11.543Z,988.96
2022-12-13T13:07:22.665Z,988.92
2022-12-13T13:08:13.516Z,988.95
2022-12-13T13:09:11.504Z,988.89
2022-12-13T13:10:16.018Z,988.83
2022-12-13T13:11:24.350Z,988.80
2022-12-13T13:12:29.618Z,988.81
2022-12-13T13:13:13.452Z,988.86
2022-12-13T13:14:14.393Z,988.83
2022-12-13T13:15:13.426Z,988.86
2022-12-13T13:16:11.474Z,988.73
2022-12-13T13:17:11.411Z,988.80
2022-12-13T13:18:11.386Z,988.74
2022-12-13T13:19:11.376Z,988.68
2022-12-13T13:20:12.211Z,988.70
2022-12-13T13:21:11.348Z,988.71
2022-12-13T13:22:12.701Z,988.70
2022-12-13T13:23:38.893Z,988.65
2022-12-13T13:24:11.306Z,988.63
2022-12-13T13:25:11.295Z,988.67
2022-12-13T13:26:30.398Z,988.71
2022-12-13T13:27:13.271Z,988.71
2022-12-13T13:28:11.257Z,988.81
2022-12-13T13:29:11.245Z,988.75
2022-12-13T13:30:11.230Z,988.75
2022-12-13T13:31:11.316Z,988.80
2022-12-13T13:32:11.248Z,988.86
2022-12-13T13:33:11.192Z,988.82
2022-12-13T13:34:11.178Z,988.91
2022-12-13T13:35:11.165Z,988.89
2022-12-13T13:36:11.177Z,988.94
2022-12-13T13:37:11.141Z,988.95
2022-12-13T13:38:11.126Z,989.01
2022-12-13T13:39:11.114Z,988.99
2022-12-13T13:40:11.106Z,989.01
2022-12-13T13:41:11.089Z,989.02
2022-12-13T13:42:11.075Z,989.07
2022-12-13T13:43:11.091Z,989.08
2022-12-13T13:44:11.050Z,989.07
2022-12-13T13:45:11.037Z,989.04
2022-12-13T13:46:11.170Z,989.09
2022-12-13T13:47:11.012Z,989.06
2022-12-13T13:48:14.618Z,989.07
2022-12-13T13:49:10.987Z,989.05
2022-12-13T13:50:10.971Z,989.06
2022-12-13T13:51:10.960Z,989.04
2022-12-13T13:52:27.002Z,989.09
2022-12-13T13:53:12.932Z,989.05
2022-12-13T13:54:10.919Z,989.04
2022-12-13T13:55:10.907Z,989.03
2022-12-13T13:56:10.895Z,989.06
2022-12-13T13:57:10.881Z,989.05
2022-12-13T13:58:11.508Z,989.13
2022-12-13T13:59:10.858Z,989.19
2022-12-13T14:00:10.845Z,989.19
2022-12-13T14:01:10.835Z,989.26
2022-12-13T14:02:10.879Z,989.27
2022-12-13T14:03:22.550Z,989.24
2022-12-13T14:04:12.796Z,989.23
2022-12-13T14:05:10.781Z,989.18
2022-12-13T14:06:10.768Z,989.21
2022-12-13T14:07:10.758Z,989.15
2022-12-13T14:08:10.766Z,989.14
2022-12-13T14:09:10.732Z,989.11
2022-12-13T14:10:10.717Z,989.04
2022-12-13T14:11:10.708Z,989.08
2022-12-13T14:12:10.696Z,989.09
2022-12-13T14:13:10.682Z,989.08
2022-12-13T14:14:21.615Z,989.01
2022-12-13T14:15:10.659Z,989.09
2022-12-13T14:16:12.227Z,989.06
2022-12-13T14:17:10.633Z,989.15
2022-12-13T14:18:10.619Z,989.16
2022-12-13T14:19:10.615Z,989.20
2022-12-13T14:20:10.688Z,989.26
2022-12-13T14:21:10.584Z,989.28
2022-12-13T14:22:10.571Z,989.30
2022-12-13T14:23:10.563Z,989.26
2022-12-13T14:24:10.573Z,989.27
2022-12-13T14:25:10.534Z,989.32
2022-12-13T14:26:10.521Z,989.32
2022-12-13T14:27:10.514Z,989.32
2022-12-13T14:28:10.498Z,989.27
2022-12-13T14:29:10.487Z,989.31
2022-12-13T14:30:27.043Z,989.31
2022-12-13T14:31:10.489Z,989.25
2022-12-13T14:32:10.553Z,989.30
2022-12-13T14:33:12.432Z,989.28
2022-12-13T14:34:10.420Z,989.31
2022-12-13T14:35:25.521Z,989.26
2022-12-13T14:36:10.393Z,989.31
2022-12-13T14:37:10.382Z,989.31
2022-12-13T14:38:10.367Z,989.33
2022-12-13T14:39:24.451Z,989.33
2022-12-13T14:40:10.368Z,989.38
2022-12-13T14:41:10.333Z,989.40
2022-12-13T14:42:10.318Z,989.34
2022-12-13T14:43:10.307Z,989.37
2022-12-13T14:44:10.293Z,989.32
2022-12-13T14:45:10.283Z,989.37
2022-12-13T14:46:10.339Z,989.38
2022-12-13T14:47:10.256Z,989.39
2022-12-13T14:48:10.243Z,989.36
2022-12-13T14:49:10.231Z,989.38
2022-12-13T14:50:10.218Z,989.44
2022-12-13T14:51:10.207Z,989.42
2022-12-13T14:52:10.193Z,989.40
2022-12-13T14:53:10.180Z,989.46
2022-12-13T15:50:09.470Z,989.12
2022-12-13T15:53:09.441Z,989.03
2022-12-13T15:55:09.424Z,989.00
2022-12-13T17:17:11.580Z,988.62
2022-12-13T21:03:05.603Z,987.26
2022-12-13T21:06:05.568Z,987.22
2022-12-13T21:07:05.554Z,987.24
2022-12-13T21:08:05.542Z,987.24
2022-12-13T22:08:04.801Z,985.99
2022-12-13T22:09:04.765Z,985.96
2022-12-13T22:33:04.461Z,985.69
2022-12-13T23:58:03.386Z,985.21
